Time;durP1;ratioP1;P1;durP2;ratioP2;P2;SDS_P1;SDS_P2;PMS_P1;PMS_P2;Temp;Humidity;BMP_temperature;BMP_pressure;BME280_temperature;BME280_humidity;BME280_pressure;Samples;Min_cycle;Max_cycle;Signal;HPM_P1;HPM_P2
2022/09/03 00:03:11;;;;;;;3.87;2.80;;;19.70;99.90;;;;;;1857647;77;21067;-73
2022/09/03 00:06:12;;;;;;;3.17;2.17;;;19.70;99.90;;;;;;1856767;77;21203;-73
2022/09/03 00:09:07;;;;;;;3.25;1.77;;;19.70;99.90;;;;;;1836994;78;21118;-74
2022/09/03 00:12:03;;;;;;;2.22;1.90;;;19.70;99.90;;;;;;1821507;78;21136;-73
2022/09/03 00:14:58;;;;;;;5.92;1.90;;;19.70;99.90;;;;;;1857495;77;21645;-73
2022/09/03 00:17:52;;;;;;;3.98;2.02;;;19.70;99.90;;;;;;1857812;77;21063;-74
2022/09/03 00:20:47;;;;;;;4.78;2.17;;;19.70;99.90;;;;;;1857485;77;21129;-73
2022/09/03 00:23:41;;;;;;;4.12;2.40;;;19.60;99.90;;;;;;1835914;78;21071;-74
2022/09/03 00:26:35;;;;;;;2.92;1.75;;;19.60;99.90;;;;;;1872087;77;21063;-74
2022/09/03 00:29:30;;;;;;;3.72;2.22;;;19.60;99.90;;;;;;1893934;75;21570;-74
2022/09/03 00:32:25;;;;;;;4.72;2.40;;;19.60;99.90;;;;;;1911675;75;21122;-74
2022/09/03 00:35:19;;;;;;;3.15;2.37;;;19.50;99.90;;;;;;1878538;75;21107;-74
2022/09/03 00:38:11;;;;;;;2.15;1.80;;;19.50;99.90;;;;;;1898524;75;21134;-74
2022/09/03 00:41:09;;;;;;;2.72;2.20;;;19.50;99.90;;;;;;1837957;78;21094;-74
2022/09/03 00:44:13;;;;;;;3.20;2.30;;;19.50;99.90;;;;;;1838059;78;21579;-73
2022/09/03 00:47:11;;;;;;;2.98;2.15;;;19.50;99.90;;;;;;1839204;78;21066;-73
2022/09/03 00:50:10;;;;;;;3.27;2.00;;;19.50;99.90;;;;;;1835193;78;21086;-73
2022/09/03 00:53:39;;;;;;;2.70;2.10;;;19.50;99.90;;;;;;1857505;77;21209;-73
2022/09/03 00:56:38;;;;;;;2.87;2.05;;;19.40;99.90;;;;;;1836968;77;21190;-73
2022/09/03 00:59:35;;;;;;;2.70;2.10;;;19.40;99.90;;;;;;1848160;76;21103;-74
2022/09/03 01:02:32;;;;;;;2.33;2.00;;;19.40;99.90;;;;;;1886270;75;21133;-74
2022/09/03 01:05:45;;;;;;;2.15;1.92;;;19.40;99.90;;;;;;1884288;76;21133;-74
2022/09/03 01:08:49;;;;;;;2.20;1.90;;;19.50;99.90;;;;;;1838123;78;21067;-74
2022/09/03 01:11:48;;;;;;;2.50;2.10;;;19.60;99.90;;;;;;1809373;78;21101;-74
2022/09/03 01:14:46;;;;;;;2.77;2.10;;;19.50;99.90;;;;;;1830027;78;21103;-74
2022/09/03 01:18:00;;;;;;;3.60;2.02;;;19.50;99.90;;;;;;1825964;77;21198;-75
2022/09/03 01:21:01;;;;;;;2.45;1.95;;;19.40;99.90;;;;;;1847411;77;21145;-74
2022/09/03 01:24:30;;;;;;;3.60;1.80;;;19.40;99.90;;;;;;1847119;77;21166;-76
2022/09/03 01:27:30;;;;;;;4.00;1.80;;;19.50;99.90;;;;;;1847273;77;21166;-74
2022/09/03 01:30:23;;;;;;;3.15;1.90;;;19.40;99.90;;;;;;1824096;77;21118;-74
2022/09/03 01:33:19;;;;;;;5.47;1.92;;;19.40;99.90;;;;;;1849874;77;21107;-75
2022/09/03 01:36:16;;;;;;;5.30;2.20;;;19.40;99.90;;;;;;1846036;77;21155;-75
2022/09/03 01:39:12;;;;;;;2.20;2.00;;;19.40;99.90;;;;;;1819541;78;21184;-75
2022/09/03 01:42:15;;;;;;;2.92;2.25;;;19.40;99.90;;;;;;1855665;77;21200;-75
2022/09/03 01:45:26;;;;;;;4.78;2.10;;;19.50;99.90;;;;;;1841424;77;21149;-73
2022/09/03 01:48:39;;;;;;;2.67;2.08;;;19.50;99.90;;;;;;1847000;77;21130;-73
2022/09/03 01:51:34;;;;;;;2.77;2.25;;;19.50;99.90;;;;;;1847058;77;21151;-73
2022/09/03 01:54:42;;;;;;;3.60;2.20;;;19.50;99.90;;;;;;1850086;77;21192;-74
2022/09/03 01:57:57;;;;;;;3.47;2.37;;;19.50;99.90;;;;;;1806686;79;21200;-76
2022/09/03 02:00:55;;;;;;;2.95;2.30;;;19.40;99.90;;;;;;1822988;78;21575;-75
2022/09/03 02:03:47;;;;;;;;;;;19.40;99.90;;;;;;1836939;77;21082;-75
2022/09/03 02:06:39;;;;;;;2.98;2.08;;;19.40;99.90;;;;;;1816901;78;20150;-77
2022/09/03 02:09:33;;;;;;;5.30;2.45;;;19.30;99.90;;;;;;1836033;78;21122;-76
2022/09/03 02:12:32;;;;;;;3.05;2.10;;;19.30;99.90;;;;;;1838415;77;21524;-78
2022/09/03 02:15:26;;;;;;;3.37;2.35;;;19.30;99.90;;;;;;1850573;77;21151;-75
2022/09/03 02:18:22;;;;;;;2.55;2.30;;;19.30;99.90;;;;;;1819632;78;21080;-75
2022/09/03 02:21:18;;;;;;;3.08;2.22;;;19.40;99.90;;;;;;1829092;77;21122;-76
2022/09/03 02:24:11;;;;;;;6.37;2.33;;;19.40;99.90;;;;;;1828944;77;21104;-76
2022/09/03 02:27:05;;;;;;;2.85;2.33;;;19.30;99.90;;;;;;1828994;77;21121;-75
2022/09/03 02:30:00;;;;;;;2.45;2.00;;;19.30;99.90;;;;;;1850459;77;21090;-75
2022/09/03 02:32:53;;;;;;;3.67;2.55;;;19.40;99.90;;;;;;1818118;78;21106;-75
2022/09/03 02:35:47;;;;;;;2.42;2.00;;;19.40;99.90;;;;;;1847186;77;21128;-74
2022/09/03 02:38:42;;;;;;;4.45;2.52;;;19.40;99.90;;;;;;1810252;78;21127;-74
2022/09/03 02:41:34;;;;;;;3.87;2.35;;;19.30;99.90;;;;;;1880270;75;21605;-75
2022/09/03 02:44:30;;;;;;;4.35;2.27;;;19.30;99.90;;;;;;1797073;79;21257;-76
2022/09/03 02:47:23;;;;;;;2.52;1.92;;;19.40;99.90;;;;;;1848972;77;21112;-77
2022/09/03 02:50:14;;;;;;;4.75;2.22;;;19.40;99.90;;;;;;1854233;76;21618;-77
2022/09/03 02:53:06;;;;;;;2.30;2.10;;;19.40;99.90;;;;;;1858824;76;21189;-78
2022/09/03 02:56:00;;;;;;;2.55;2.00;;;19.30;99.90;;;;;;1862418;76;21154;-78
2022/09/03 02:58:51;;;;;;;2.25;1.90;;;19.40;99.90;;;;;;1848044;76;21567;-78
2022/09/03 03:01:43;;;;;;;3.25;2.08;;;19.40;99.90;;;;;;1846568;77;21126;-78
2022/09/03 03:04:35;;;;;;;3.50;2.15;;;19.40;99.90;;;;;;1858514;76;21129;-78
2022/09/03 03:07:27;;;;;;;3.87;2.22;;;19.40;99.90;;;;;;1794403;79;21182;-76
2022/09/03 03:10:18;;;;;;;3.77;2.58;;;19.40;99.90;;;;;;1855141;77;21571;-76
2022/09/03 03:13:10;;;;;;;2.65;2.35;;;19.40;99.90;;;;;;1858169;76;21137;-79
2022/09/03 03:16:05;;;;;;;3.85;2.62;;;19.30;99.90;;;;;;1858481;76;21104;-73
2022/09/03 03:18:58;;;;;;;2.35;2.10;;;19.40;99.90;;;;;;1858789;76;21140;-78
2022/09/03 03:21:50;;;;;;;3.95;2.33;;;19.30;99.90;;;;;;1849585;77;21133;-74
2022/09/03 03:24:41;;;;;;;3.12;2.30;;;19.30;99.90;;;;;;1849032;77;21249;-75
2022/09/03 03:27:32;;;;;;;3.20;2.30;;;19.30;99.90;;;;;;1853878;76;21113;-74
2022/09/03 03:30:24;;;;;;;3.55;2.50;;;19.30;99.90;;;;;;1858187;76;21062;-74
2022/09/03 03:33:15;;;;;;;2.02;1.82;;;19.30;99.90;;;;;;1864572;76;21115;-75
2022/09/03 03:36:09;;;;;;;3.12;2.65;;;19.10;99.90;;;;;;1848237;78;21120;-74
2022/09/03 03:39:02;;;;;;;2.77;2.05;;;19.20;99.90;;;;;;1876062;76;21109;-75
2022/09/03 03:41:53;;;;;;;4.92;2.33;;;19.20;99.90;;;;;;1867051;75;21082;-75
2022/09/03 03:44:44;;;;;;;2.92;2.40;;;19.20;99.90;;;;;;1863518;76;21204;-84
2022/09/03 03:47:36;;;;;;;3.77;2.30;;;19.30;99.90;;;;;;1867323;74;21085;-71
2022/09/03 03:50:27;;;;;;;4.22;2.10;;;19.20;99.90;;;;;;1905643;74;21061;-72
2022/09/03 03:53:19;;;;;;;2.30;2.10;;;19.20;99.90;;;;;;1873629;76;21076;-72
2022/09/03 03:56:13;;;;;;;4.83;2.47;;;19.20;99.90;;;;;;1861311;76;21571;-72
2022/09/03 03:59:05;;;;;;;3.42;2.25;;;19.20;99.90;;;;;;1854754;76;21168;-72
2022/09/03 04:01:56;;;;;;;3.42;2.17;;;19.10;99.90;;;;;;1897718;75;21101;-72
2022/09/03 04:04:49;;;;;;;3.37;2.40;;;19.10;99.90;;;;;;1884919;75;21072;-72
2022/09/03 04:07:40;;;;;;;3.12;2.25;;;19.20;99.90;;;;;;1877558;76;21618;-76
2022/09/03 04:10:32;;;;;;;3.10;1.90;;;19.10;99.90;;;;;;1865919;76;21553;-73
2022/09/03 04:13:23;;;;;;;3.75;2.50;;;19.10;99.90;;;;;;1874219;75;21108;-73
2022/09/03 04:16:17;;;;;;;5.33;2.30;;;19.10;99.90;;;;;;1873997;76;21083;-73
2022/09/03 04:19:08;;;;;;;2.83;2.08;;;19.10;99.90;;;;;;1857018;76;21061;-74
2022/09/03 04:22:00;;;;;;;3.25;2.40;;;19.10;99.90;;;;;;1863843;76;21103;-74
2022/09/03 04:24:51;;;;;;;3.37;2.62;;;19.10;99.90;;;;;;1863338;76;21105;-75
2022/09/03 04:27:43;;;;;;;3.70;2.37;;;19.10;99.90;;;;;;1860210;76;21120;-75
2022/09/03 04:30:34;;;;;;;4.37;2.72;;;19.20;99.90;;;;;;1859869;76;21080;-75
2022/09/03 04:33:27;;;;;;;6.37;2.67;;;19.20;99.90;;;;;;1897901;75;21042;-75
2022/09/03 04:36:20;;;;;;;3.98;2.20;;;19.20;99.90;;;;;;1864033;76;21070;-75
2022/09/03 04:39:12;;;;;;;5.22;2.40;;;19.10;99.90;;;;;;1860110;76;21124;-75
2022/09/03 04:42:03;;;;;;;4.95;2.30;;;19.10;99.90;;;;;;1860006;76;21108;-75
2022/09/03 04:44:55;;;;;;;3.00;2.55;;;19.20;99.90;;;;;;1860492;76;21594;-75
2022/09/03 04:47:56;;;;;;;5.90;3.37;;;19.20;99.90;;;;;;1865787;76;21142;-75
2022/09/03 04:50:47;;;;;;;5.35;3.35;;;19.20;99.90;;;;;;1862910;76;21554;-75
2022/09/03 04:53:40;;;;;;;3.98;2.75;;;19.10;99.90;;;;;;1860211;76;21066;-75
2022/09/03 04:56:33;;;;;;;4.25;3.42;;;19.00;99.90;;;;;;1859956;76;21167;-75
2022/09/03 04:59:24;;;;;;;6.65;3.25;;;19.00;99.90;;;;;;1863933;76;21552;-75
2022/09/03 05:02:16;;;;;;;3.72;3.02;;;19.00;99.90;;;;;;1863797;76;21059;-75
2022/09/03 05:05:07;;;;;;;5.35;3.30;;;19.00;99.90;;;;;;1870967;76;21146;-73
2022/09/03 05:08:01;;;;;;;5.67;3.10;;;19.00;99.90;;;;;;1870727;76;21218;-74
2022/09/03 05:10:59;;;;;;;5.55;2.80;;;19.00;99.90;;;;;;1870816;76;21057;-75
2022/09/03 05:13:52;;;;;;;3.52;2.75;;;18.90;99.90;;;;;;1867075;76;21537;-75
2022/09/03 05:16:44;;;;;;;3.62;2.40;;;18.90;99.90;;;;;;1862591;76;21161;-75
2022/09/03 05:19:36;;;;;;;3.05;2.42;;;18.90;99.90;;;;;;1860388;76;21154;-75
2022/09/03 05:22:28;;;;;;;2.75;2.50;;;18.90;99.90;;;;;;1859889;76;21183;-75
2022/09/03 05:25:19;;;;;;;3.37;2.40;;;18.90;99.90;;;;;;1861644;76;21167;-75
2022/09/03 05:28:12;;;;;;;4.05;2.45;;;19.00;99.90;;;;;;1875925;76;21562;-75
2022/09/03 05:31:05;;;;;;;4.05;2.40;;;19.00;99.90;;;;;;1859973;76;21544;-75
2022/09/03 05:33:59;;;;;;;3.40;2.20;;;19.00;99.90;;;;;;1874802;76;21199;-75
2022/09/03 05:36:51;;;;;;;4.47;2.10;;;19.10;99.90;;;;;;1868310;76;21090;-76
2022/09/03 05:39:43;;;;;;;2.20;1.95;;;19.10;99.90;;;;;;1871623;76;21562;-75
2022/09/03 05:42:36;;;;;;;5.05;2.33;;;19.10;99.90;;;;;;1861308;76;21109;-75
2022/09/03 05:45:28;;;;;;;5.65;2.33;;;19.20;99.90;;;;;;1881766;75;21081;-75
2022/09/03 05:48:19;;;;;;;4.75;2.47;;;19.20;99.90;;;;;;1895448;75;21588;-75
2022/09/03 05:51:15;;;;;;;4.25;2.52;;;19.20;99.90;;;;;;1893157;75;21067;-75
2022/09/03 05:54:07;;;;;;;3.05;2.40;;;19.20;99.90;;;;;;1873117;75;21067;-74
2022/09/03 05:56:58;;;;;;;4.90;2.62;;;19.10;99.90;;;;;;1865686;75;21130;-73
2022/09/03 05:59:49;;;;;;;5.95;2.72;;;19.10;99.90;;;;;;1895975;75;21106;-73
2022/09/03 06:02:43;;;;;;;3.02;2.70;;;19.10;99.90;;;;;;1896955;75;21665;-73
2022/09/03 06:05:34;;;;;;;3.72;2.40;;;19.20;99.90;;;;;;1865047;76;21057;-74
2022/09/03 06:08:26;;;;;;;5.33;2.80;;;19.10;99.90;;;;;;1897363;75;21048;-74
2022/09/03 06:11:17;;;;;;;4.17;2.27;;;19.20;99.90;;;;;;1897308;75;21138;-73
2022/09/03 06:14:10;;;;;;;5.53;2.83;;;19.20;99.90;;;;;;1859404;76;21098;-78
2022/09/03 06:17:01;;;;;;;3.98;2.60;;;19.20;99.90;;;;;;1845723;78;21116;-77
2022/09/03 06:19:53;;;;;;;4.12;2.62;;;19.20;99.90;;;;;;1868450;75;21141;-77
2022/09/03 06:22:51;;;;;;;3.72;2.25;;;19.20;99.90;;;;;;1892405;75;21118;-77
2022/09/03 06:25:42;;;;;;;4.80;2.47;;;19.10;99.90;;;;;;1884295;75;21058;-78
2022/09/03 06:28:34;;;;;;;3.92;2.22;;;19.20;99.90;;;;;;1902347;75;21125;-77
2022/09/03 06:31:26;;;;;;;4.42;2.20;;;19.20;99.90;;;;;;1862938;76;21112;-77
2022/09/03 06:34:18;;;;;;;6.95;2.75;;;19.20;99.90;;;;;;1895077;75;21157;-77
2022/09/03 06:37:09;;;;;;;3.85;2.58;;;19.30;99.90;;;;;;1858209;76;21141;-78
2022/09/03 06:42:41;;;;;;;4.85;2.50;;;19.40;99.90;;;;;;1937883;72;22335;-73
2022/09/03 06:45:33;;;;;;;4.58;2.90;;;19.50;99.90;;;;;;1893128;75;21060;-73
2022/09/03 06:48:25;;;;;;;2.98;2.67;;;19.60;99.90;;;;;;1892828;75;21166;-73
2022/09/03 06:51:18;;;;;;;4.75;2.50;;;19.60;99.90;;;;;;1867529;75;21549;-74
2022/09/03 06:54:10;;;;;;;3.02;2.37;;;19.80;99.90;;;;;;1869087;76;21155;-74
2022/09/03 06:57:03;;;;;;;4.75;2.70;;;19.90;99.90;;;;;;1883433;75;21173;-72
2022/09/03 06:59:54;;;;;;;2.72;2.10;;;19.80;99.90;;;;;;1875388;75;21553;-72
2022/09/03 07:02:47;;;;;;;2.77;2.22;;;19.90;99.90;;;;;;1883430;75;21555;-74
2022/09/03 07:05:38;;;;;;;4.22;2.40;;;19.90;99.90;;;;;;1887420;75;21118;-73
2022/09/03 07:08:31;;;;;;;4.65;2.10;;;20.00;99.90;;;;;;1885183;75;21099;-73
2022/09/03 07:11:25;;;;;;;3.92;2.20;;;20.00;99.90;;;;;;1883503;75;21124;-73
2022/09/03 07:14:18;;;;;;;3.08;2.55;;;19.90;99.90;;;;;;1883639;75;21068;-73
2022/09/03 07:17:10;;;;;;;4.70;2.50;;;20.00;99.90;;;;;;1885718;75;21129;-74
2022/09/03 07:20:01;;;;;;;4.35;2.33;;;20.10;99.90;;;;;;1886880;75;21134;-77
2022/09/03 07:22:56;;;;;;;3.25;2.33;;;20.10;99.90;;;;;;1872455;75;21199;-73
2022/09/03 07:25:54;;;;;;;3.50;2.20;;;20.10;99.90;;;;;;1880555;75;21139;-75
2022/09/03 07:28:47;;;;;;;2.62;2.22;;;20.10;99.90;;;;;;1869590;75;21067;-75
2022/09/03 07:31:40;;;;;;;4.05;2.02;;;20.10;99.90;;;;;;1887257;75;21221;-75
2022/09/03 07:34:34;;;;;;;3.70;2.65;;;20.20;99.90;;;;;;1886427;75;21671;-76
2022/09/03 07:37:26;;;;;;;3.67;2.50;;;20.30;99.90;;;;;;1888915;73;21622;-74
2022/09/03 07:40:18;;;;;;;4.53;2.40;;;20.40;99.90;;;;;;1900489;73;21134;-75
2022/09/03 07:43:10;;;;;;;5.58;1.80;;;20.50;99.90;;;;;;1870048;76;21129;-77
2022/09/03 07:46:01;;;;;;;7.00;1.90;;;20.60;99.90;;;;;;1846934;77;21142;-75
2022/09/03 07:48:57;;;;;;;3.77;2.40;;;20.60;99.90;;;;;;1889402;75;21147;-77
2022/09/03 07:51:51;;;;;;;5.08;2.95;;;20.60;99.90;;;;;;1897782;75;21063;-75
2022/09/03 07:54:43;;;;;;;3.30;2.00;;;20.60;99.90;;;;;;1897053;75;21184;-75
2022/09/03 07:57:35;;;;;;;6.30;2.40;;;20.60;99.90;;;;;;1893917;75;21084;-75
2022/09/03 08:00:27;;;;;;;7.65;2.27;;;20.70;99.90;;;;;;1891637;75;21157;-79
2022/09/03 08:03:18;;;;;;;2.60;2.40;;;20.70;99.90;;;;;;1893702;74;21644;-71
2022/09/03 08:06:11;;;;;;;5.05;2.40;;;20.60;99.90;;;;;;1915913;74;21056;-73
2022/09/03 08:09:04;;;;;;;57.73;51.55;;;20.70;99.90;;;;;;1896616;75;21081;-79
2022/09/03 08:11:56;;;;;;;7.10;6.25;;;20.70;99.90;;;;;;1889736;75;21047;-72
2022/09/03 08:14:47;;;;;;;6.97;3.22;;;20.80;99.90;;;;;;1876177;75;21060;-75
2022/09/03 08:17:40;;;;;;;3.27;2.70;;;20.90;99.90;;;;;;1876963;75;21482;-73
2022/09/03 08:20:33;;;;;;;4.90;2.22;;;21.00;99.90;;;;;;1887524;75;21209;-74
2022/09/03 08:23:25;;;;;;;4.83;1.98;;;21.10;99.90;;;;;;1891117;75;21071;-74
2022/09/03 08:26:17;;;;;;;4.25;2.50;;;21.10;99.90;;;;;;1897314;75;21592;-81
2022/09/03 08:29:09;;;;;;;3.72;2.00;;;21.20;99.90;;;;;;1874326;75;21125;-80
2022/09/03 08:32:00;;;;;;;349.48;310.77;;;21.20;99.90;;;;;;1895060;75;21107;-82
2022/09/03 08:34:53;;;;;;;6.40;5.05;;;21.30;99.90;;;;;;1892793;75;21199;-74
2022/09/03 08:37:45;;;;;;;2.50;1.47;;;21.50;99.90;;;;;;1919147;74;21091;-75
2022/09/03 08:43:19;;;;;;;2.42;1.82;;;21.50;99.90;;;;;;1957947;72;22292;-74
2022/09/03 08:46:11;;;;;;;2.50;1.62;;;21.40;99.90;;;;;;1923802;74;21225;-74
2022/09/03 08:49:03;;;;;;;4.78;2.02;;;21.30;99.90;;;;;;1858124;76;22613;-74
2022/09/03 08:51:57;;;;;;;2.72;1.80;;;21.50;99.90;;;;;;1910315;75;21112;-74
2022/09/03 08:54:50;;;;;;;2.33;1.90;;;21.60;99.90;;;;;;1886323;75;21067;-75
2022/09/03 08:57:45;;;;;;;5.53;2.20;;;21.60;99.90;;;;;;1934578;73;21105;-74
2022/09/03 09:00:44;;;;;;;1.82;1.70;;;21.80;99.90;;;;;;1899192;75;21117;-74
2022/09/03 09:03:45;;;;;;;3.20;2.05;;;22.00;99.90;;;;;;1897111;75;21110;-74
2022/09/03 09:09:28;;;;;;;2.83;1.80;;;22.00;99.90;;;;;;1973783;72;22102;-74
2022/09/03 09:12:30;;;;;;;3.27;1.50;;;22.10;99.90;;;;;;1939408;73;21086;-74
2022/09/03 09:15:29;;;;;;;3.20;1.60;;;22.10;99.90;;;;;;1917612;75;21066;-75
2022/09/03 09:18:25;;;;;;;3.15;1.70;;;22.20;99.90;;;;;;1917328;75;21087;-74
2022/09/03 09:21:19;;;;;;;3.10;1.90;;;22.40;99.90;;;;;;1918148;73;21100;-74
2022/09/03 09:24:20;;;;;;;3.02;2.10;;;22.50;99.90;;;;;;1923014;73;21132;-74
2022/09/03 09:27:09;;;;;;;2.60;2.08;;;22.60;99.90;;;;;;1926843;73;21129;-81
2022/09/03 09:30:05;;;;;;;3.87;1.67;;;22.70;99.90;;;;;;1917420;75;21082;-83
2022/09/03 09:32:59;;;;;;;4.50;1.90;;;22.80;99.90;;;;;;1917480;75;21066;-72
2022/09/03 09:35:50;;;;;;;2.15;1.60;;;22.90;99.90;;;;;;1917119;75;21220;-73
2022/09/03 09:38:44;;;;;;;2.27;1.60;;;23.00;99.90;;;;;;1917280;75;21460;-73
2022/09/03 09:41:35;;;;;;;4.17;2.00;;;23.00;99.90;;;;;;1946291;73;21156;-73
2022/09/03 09:44:28;;;;;;;3.02;1.95;;;23.10;99.90;;;;;;1931018;73;21043;-72
2022/09/03 09:47:26;;;;;;;3.45;1.85;;;23.10;99.90;;;;;;1917241;75;21109;-73
2022/09/03 09:50:21;;;;;;;3.60;1.80;;;23.20;99.90;;;;;;1916843;75;21135;-73
2022/09/03 09:53:16;;;;;;;3.40;1.95;;;23.50;99.90;;;;;;1934384;73;21055;-73
2022/09/03 09:56:10;;;;;;;4.72;1.80;;;23.50;99.90;;;;;;1916693;75;21119;-73
2022/09/03 09:59:06;;;;;;;4.00;1.95;;;23.50;99.90;;;;;;1917267;75;21070;-73
2022/09/03 10:02:11;;;;;;;3.10;1.82;;;23.60;99.90;;;;;;1917153;73;21053;-73
2022/09/03 10:05:13;;;;;;;;;;;23.70;99.90;;;;;;1933113;73;21451;-73
2022/09/03 10:08:07;;;;;;;3.33;2.15;;;23.80;99.90;;;;;;1920377;73;20172;-73
2022/09/03 10:10:59;;;;;;;3.00;1.80;;;23.90;99.90;;;;;;1924271;73;21539;-74
2022/09/03 10:13:52;;;;;;;2.35;1.65;;;23.90;99.90;;;;;;1904932;75;21177;-73
2022/09/03 10:16:47;;;;;;;2.92;1.65;;;23.90;99.90;;;;;;1931465;73;21676;-73
2022/09/03 10:19:42;;;;;;;3.80;1.90;;;23.90;99.90;;;;;;1918050;73;21247;-73
2022/09/03 10:22:37;;;;;;;2.05;1.90;;;23.90;99.90;;;;;;1949650;73;21103;-74
2022/09/03 10:25:38;;;;;;;598.70;532.85;;;24.10;99.90;;;;;;1939258;73;21059;-81
2022/09/03 10:28:34;;;;;;;15.13;11.68;;;24.40;99.90;;;;;;1923879;74;21102;-73
2022/09/03 10:31:39;;;;;;;2.47;2.10;;;24.70;99.90;;;;;;1916837;73;21061;-74
2022/09/03 10:34:37;;;;;;;2.90;2.02;;;25.10;99.90;;;;;;1917755;74;21052;-73
2022/09/03 10:37:37;;;;;;;3.37;1.90;;;25.30;99.90;;;;;;1927662;74;21053;-73
2022/09/03 10:40:36;;;;;;;2.75;1.60;;;25.30;99.90;;;;;;1938821;73;21179;-73
2022/09/03 10:43:44;;;;;;;4.22;2.42;;;25.30;99.90;;;;;;1939221;73;21080;-73
2022/09/03 10:46:40;;;;;;;1.70;1.60;;;25.40;99.90;;;;;;1916764;73;21135;-73
2022/09/03 10:49:49;;;;;;;3.42;1.95;;;25.50;99.90;;;;;;1904536;73;21244;-73
2022/09/03 10:52:46;;;;;;;3.15;1.70;;;25.60;99.90;;;;;;1934035;73;21133;-73
2022/09/03 10:55:47;;;;;;;3.60;1.95;;;25.50;99.90;;;;;;1916645;75;21555;-73
2022/09/03 10:59:07;;;;;;;2.33;1.92;;;25.60;99.90;;;;;;1917554;73;21674;-74
2022/09/03 11:02:20;;;;;;;3.33;1.52;;;25.70;99.90;;;;;;1917974;73;21047;-73
2022/09/03 11:05:28;;;;;;;3.52;2.27;;;25.80;99.90;;;;;;1928685;73;21091;-73
2022/09/03 11:10:58;;;;;;;5.53;2.90;;;25.90;99.90;;;;;;1937490;72;22276;-73
2022/09/03 11:13:53;;;;;;;2.37;1.80;;;25.90;99.90;;;;;;1912514;75;21098;-74
2022/09/03 11:16:48;;;;;;;3.05;2.22;;;25.90;99.90;;;;;;1859213;76;21094;-73
2022/09/03 11:19:44;;;;;;;4.37;2.52;;;25.70;99.90;;;;;;1907992;73;21120;-89
2022/09/03 11:22:37;;;;;;;7.83;5.80;;;25.70;99.90;;;;;;1920998;73;21218;-73
2022/09/03 11:25:34;;;;;;;5.42;2.02;;;25.60;99.90;;;;;;1910492;75;21047;-73
2022/09/03 11:28:33;;;;;;;2.02;1.70;;;25.50;99.90;;;;;;1903125;75;21099;-73
2022/09/03 11:31:30;;;;;;;3.33;2.00;;;25.40;99.90;;;;;;1899948;73;21078;-73
2022/09/03 11:37:21;;;;;;;2.62;2.15;;;25.20;99.90;;;;;;1920302;72;22159;-72
2022/09/03 11:40:17;;;;;;;4.47;2.60;;;25.20;99.90;;;;;;1910910;74;21092;-73
2022/09/03 11:43:12;;;;;;;1.92;1.70;;;25.30;99.90;;;;;;1921130;74;21118;-73
2022/09/03 11:46:10;;;;;;;4.40;2.30;;;25.40;99.90;;;;;;1893333;75;21106;-73
2022/09/03 11:49:11;;;;;;;4.10;2.35;;;25.50;99.90;;;;;;1906200;75;21125;-74
2022/09/03 11:52:06;;;;;;;2.50;2.05;;;25.60;99.90;;;;;;1891947;75;21159;-78
2022/09/03 11:54:58;;;;;;;2.75;2.00;;;25.60;99.90;;;;;;1906104;75;21593;-79
2022/09/03 11:57:49;;;;;;;3.77;2.47;;;25.50;99.90;;;;;;1905112;74;21515;-74
2022/09/03 12:00:44;;;;;;;259.98;233.15;;;25.60;99.90;;;;;;1914794;75;21515;-85
2022/09/03 12:06:50;;;;;;;3.45;2.70;;;25.70;99.90;;;;;;1936111;72;22141;-73
2022/09/03 12:09:58;;;;;;;3.87;2.40;;;25.80;99.90;;;;;;1910769;74;21164;-81
2022/09/03 12:13:07;;;;;;;3.98;2.65;;;26.00;99.90;;;;;;1879705;75;21213;-79
2022/09/03 12:16:33;;;;;;;3.62;2.37;;;25.90;99.90;;;;;;1891600;75;21514;-84
2022/09/03 12:19:31;;;;;;;2.72;2.08;;;26.00;99.90;;;;;;1904334;75;21140;-84
2022/09/03 12:22:26;;;;;;;2.47;2.27;;;26.00;99.90;;;;;;1899612;74;21177;-79
2022/09/03 12:25:18;;;;;;;3.50;2.17;;;25.90;99.90;;;;;;1902832;75;21605;-79
2022/09/03 12:30:52;;;;;;;3.60;2.35;;;26.00;99.90;;;;;;1945971;72;22267;-79
2022/09/03 12:33:44;;;;;;;2.85;2.50;;;26.10;99.90;;;;;;1939734;73;21083;-82
2022/09/03 12:36:40;;;;;;;4.37;2.15;;;26.20;99.90;;;;;;1917386;75;21168;-76
2022/09/03 12:39:31;;;;;;;3.47;2.58;;;26.30;99.90;;;;;;1917561;75;21150;-77
2022/09/03 12:42:31;;;;;;;331.85;296.07;;;26.40;99.90;;;;;;1917318;74;21108;-82
2022/09/03 12:45:24;;;;;;;4.90;4.45;;;26.50;99.90;;;;;;1939199;73;21109;-74
2022/09/03 12:48:19;;;;;;;3.10;2.72;;;26.70;99.90;;;;;;1934265;73;21554;-73
2022/09/03 12:51:10;;;;;;;3.92;3.25;;;26.90;99.90;;;;;;1931491;73;21122;-73
2022/09/03 12:54:08;;;;;;;2.20;2.00;;;27.20;99.90;;;;;;1916701;75;21072;-72
2022/09/03 12:57:01;;;;;;;3.98;2.27;;;27.40;99.90;;;;;;1929391;73;21086;-73
2022/09/03 12:59:55;;;;;;;2.05;1.85;;;27.40;99.90;;;;;;1922027;73;21127;-73
2022/09/03 13:02:50;;;;;;;2.60;1.72;;;27.40;99.90;;;;;;1928183;73;21059;-73
2022/09/03 13:05:45;;;;;;;1.75;1.55;;;27.40;99.90;;;;;;1917376;75;21122;-73
2022/09/03 13:08:40;;;;;;;2.77;2.08;;;27.50;99.90;;;;;;1919248;73;21070;-73
2022/09/03 13:11:36;;;;;;;2.80;1.82;;;27.70;99.90;;;;;;1917077;75;21117;-73
2022/09/03 13:14:28;;;;;;;2.55;1.82;;;27.90;99.90;;;;;;1917132;75;21062;-73
2022/09/03 13:17:37;;;;;;;2.05;1.70;;;27.90;99.90;;;;;;1917201;75;21103;-73
2022/09/03 13:20:35;;;;;;;2.72;1.98;;;28.10;99.90;;;;;;1917249;75;21062;-74
2022/09/03 13:26:43;;;;;;;2.72;1.92;;;28.00;99.90;;;;;;1949576;72;22263;-73
2022/09/03 13:29:50;;;;;;;2.42;1.90;;;28.10;99.90;;;;;;1927020;73;21121;-74
2022/09/03 13:32:53;;;;;;;3.52;1.82;;;28.40;99.90;;;;;;1894708;75;21150;-74
2022/09/03 13:35:48;;;;;;;1.70;1.60;;;28.50;99.90;;;;;;1895255;75;21059;-74
2022/09/03 13:38:42;;;;;;;2.50;1.60;;;28.30;99.90;;;;;;1898506;75;21113;-73
2022/09/03 13:41:37;;;;;;;2.12;1.52;;;28.00;99.90;;;;;;1905124;75;21055;-76
2022/09/03 13:44:36;;;;;;;2.83;1.80;;;27.80;99.90;;;;;;1900836;75;21216;-74
2022/09/03 13:47:33;;;;;;;2.75;2.00;;;27.70;99.90;;;;;;1897599;75;21116;-75
2022/09/03 13:50:27;;;;;;;3.05;2.08;;;27.90;99.90;;;;;;1906721;75;21101;-75
2022/09/03 13:53:23;;;;;;;2.58;1.85;;;28.10;99.90;;;;;;1906811;75;21047;-72
2022/09/03 13:56:22;;;;;;;3.40;1.90;;;28.20;99.90;;;;;;1885591;75;21116;-72
2022/09/03 13:59:18;;;;;;;2.85;1.82;;;28.20;99.90;;;;;;1913031;73;21061;-75
2022/09/03 14:02:20;;;;;;;476.53;426.07;;;28.10;99.90;;;;;;1899006;75;21125;-79
2022/09/03 14:05:15;;;;;;;8.65;5.30;;;28.30;99.90;;;;;;1895708;75;21381;-75
2022/09/03 14:08:12;;;;;;;1.95;1.77;;;28.40;99.90;;;;;;1895403;75;21149;-73
2022/09/03 14:11:10;;;;;;;3.90;1.67;;;28.30;99.90;;;;;;1904796;75;21117;-74
2022/09/03 14:14:17;;;;;;;;;;;29.00;99.90;;;;;;1907941;75;21091;-72
2022/09/03 14:17:26;;;;;;;3.00;1.70;;;31.00;99.90;;;;;;1906139;75;20120;-73
2022/09/03 14:20:23;;;;;;;2.40;1.77;;;32.70;99.90;;;;;;1901856;75;21169;-74
2022/09/03 14:23:26;;;;;;;2.70;1.60;;;32.40;99.90;;;;;;1898608;75;21537;-73
2022/09/03 14:26:21;;;;;;;2.05;1.62;;;32.10;99.90;;;;;;1884237;75;21121;-73
2022/09/03 14:29:19;;;;;;;2.12;1.77;;;32.30;99.90;;;;;;1884929;76;21074;-73
2022/09/03 14:32:25;;;;;;;3.20;2.00;;;32.30;99.90;;;;;;1898216;75;21088;-73
2022/09/03 14:38:31;;;;;;;3.25;1.67;;;34.20;99.90;;;;;;1976077;72;22190;-73
2022/09/03 14:41:35;;;;;;;2.58;2.20;;;34.90;98.20;;;;;;1917142;75;21064;-73
2022/09/03 14:44:38;;;;;;;4.72;2.50;;;35.70;96.90;;;;;;1917029;75;21061;-73
2022/09/03 14:47:40;;;;;;;2.83;2.30;;;36.60;94.80;;;;;;1917246;75;21052;-73
2022/09/03 14:50:50;;;;;;;2.65;2.20;;;36.80;93.30;;;;;;1917288;75;21617;-73
2022/09/03 14:54:03;;;;;;;1.87;1.50;;;37.50;91.60;;;;;;1917111;75;21607;-73
2022/09/03 14:57:01;;;;;;;3.42;1.80;;;36.70;87.90;;;;;;1917499;75;21217;-73
2022/09/03 15:00:05;;;;;;;2.60;1.87;;;35.40;88.80;;;;;;1940447;73;21191;-73
2022/09/03 15:03:25;;;;;;;4.90;2.20;;;35.90;87.90;;;;;;1917311;74;21663;-73
2022/09/03 15:06:22;;;;;;;3.33;2.20;;;35.60;84.50;;;;;;1917511;75;21129;-73
2022/09/03 15:09:25;;;;;;;2.87;2.05;;;36.10;84.00;;;;;;1917501;75;21059;-75
2022/09/03 15:12:21;;;;;;;3.45;2.20;;;36.10;82.60;;;;;;1917655;75;21066;-75
2022/09/03 15:15:18;;;;;;;2.33;1.95;;;36.00;82.80;;;;;;1917440;75;21147;-74
2022/09/03 15:18:12;;;;;;;;;;;35.00;84.10;;;;;;1920408;75;21088;-74
2022/09/03 15:21:07;;;;;;;7.12;2.60;;;34.10;85.30;;;;;;1917632;75;20171;-73
2022/09/03 15:24:05;;;;;;;4.22;2.40;;;32.30;89.60;;;;;;1917727;75;21066;-75
2022/09/03 15:27:26;;;;;;;3.58;2.25;;;31.00;92.20;;;;;;1917503;75;21118;-72
2022/09/03 15:30:19;;;;;;;2.85;2.10;;;30.20;94.20;;;;;;1937016;73;21164;-75
2022/09/03 15:33:18;;;;;;;4.28;2.00;;;29.80;95.60;;;;;;1917504;75;21191;-75
2022/09/03 15:36:16;;;;;;;5.05;2.08;;;29.30;97.50;;;;;;1917518;75;21076;-79
2022/09/03 15:39:11;;;;;;;5.25;2.50;;;30.10;97.50;;;;;;1946989;73;21139;-73
2022/09/03 15:44:52;;;;;;;4.15;1.82;;;32.20;94.70;;;;;;1954480;72;22708;-73
2022/09/03 15:47:53;;;;;;;3.47;2.02;;;32.40;94.60;;;;;;1904658;74;21553;-72